This is the latest recevied weather packets stored in our database for station/object TG5ALY-15. If no packets are shown the sender has not sent any weather packets the latest 10 day(s).
| Time | Temp. | Humidity | Pressure | Rain* | Wind** | Luminosity | Snow |
|---|---|---|---|---|---|---|---|
| 1778094701 | 25° C | 23% | 1029.2 hPa | 0 mm | - | 981 W/m² | - |
| 1778093500 | 25.56° C | 25% | 1029.5 hPa | 0 mm | - | 988 W/m² | - |
| 1778092299 | 24.44° C | 27% | 1029.9 hPa | 0 mm | - | 960 W/m² | - |
| 1778091095 | 23.89° C | 28% | 1030.4 hPa | 0 mm | - | 995 W/m² | - |
| 1778089892 | 24.44° C | 27% | 1030.4 hPa | 0 mm | - | 987 W/m² | - |
| 1778088688 | 23.89° C | 25% | 1030.8 hPa | 0 mm | - | 959 W/m² | - |
| 1778087482 | 23.33° C | 24% | 1030.8 hPa | 0 mm | - | 949 W/m² | - |
| 1778086282 | 23.33° C | 24% | 1030.8 hPa | 0 mm | - | 905 W/m² | - |
| 1778085079 | 23.33° C | 24% | 1030.8 hPa | 0 mm | - | 863 W/m² | - |
| 1778083877 | 22.78° C | 29% | 1030.8 hPa | 0 mm | - | 833 W/m² | - |
| 1778082676 | 19.44° C | 65% | 1031.7 hPa | 0 mm | - | 703 W/m² | - |
| 1778081073 | 18.89° C | 66% | 1031.3 hPa | 0 mm | - | 666 W/m² | - |
| 1778079867 | 18.33° C | 70% | 1031.7 hPa | 0 mm | - | 582 W/m² | - |
| 1778078667 | 17.22° C | 72% | 1031.7 hPa | 0 mm | - | 524 W/m² | - |
| 1778077463 | 16.11° C | 79% | 1031.7 hPa | 0 mm | - | 429 W/m² | - |
| 1778076259 | 15.56° C | 80% | 1031.7 hPa | 0 mm | - | 339 W/m² | - |
| 1778075057 | 14.44° C | 82% | 1031.3 hPa | 0 mm | - | 274 W/m² | - |
| 1778073857 | 13.33° C | 85% | 1031.7 hPa | 0 mm | - | 190 W/m² | - |
| 1778072656 | 11.67° C | 89% | 1031.3 hPa | 0 mm | - | 114 W/m² | - |
| 1778071453 | 12.22° C | 86% | 1030.8 hPa | 0 mm | - | 61 W/m² | - |
| 1778070248 | 10.56° C | 94% | 1030.8 hPa | 0 mm | - | 37 W/m² | - |
| 1778069043 | 10° C | 94% | 1030.8 hPa | 0 mm | - | 20 W/m² | - |
| 1778067839 | 10° C | 94% | 1030.4 hPa | 0 mm | - | 5 W/m² | - |
| 1778066634 | 10° C | 94% | 1030.4 hPa | 0 mm | - | 0 W/m² | - |
| 1778065430 | 10.56° C | 93% | 1030.4 hPa | 0 mm | - | 0 W/m² | - |
* Rain latest hour (hover to see other rain measurements)
** Current wind speed in m/s (hover to see current wind gust speed)